Tignall, Georgia
Current Conditions -  °F | °C
As of 2:55 AM on Sunday 26 Oct 2014 (Local Time) from KIIY Reporting Station
Clear Clear  
Wind Chill: 63°   Ceiling: Unl
Heat Index: 63°   Visibility: 10mi
Dew Point: 57°   Wind: 8mph
Humidity: 82%   Direction: 300°WNW
Pressure: 29.96"   Gusts: NA
Location:  33.87°N, 82.74°W
Report Text: KIIY 260655Z AUTO 30007KT 10SM CLR 17/14 A2996 RMK AO2
Loading
Personal Weather Stations






























Interactive Weather Map New forecast layout! Learn more

10-Day Weather Forecast

Advertisements
Track Severe Weather on mobile